createdAt,value
2018-12-09T00:02:26.366Z,3.77
2018-12-09T00:05:30.570Z,5.50
2018-12-09T00:08:34.863Z,4.30
2018-12-09T00:11:39.230Z,3.53
2018-12-09T00:14:43.504Z,5.10
2018-12-09T00:17:47.782Z,5.07
2018-12-09T00:20:52.140Z,4.63
2018-12-09T00:23:56.417Z,4.60
2018-12-09T00:27:00.622Z,4.90
2018-12-09T00:30:05.665Z,4.20
2018-12-09T00:33:09.958Z,5.23
2018-12-09T00:36:14.241Z,3.70
2018-12-09T00:39:18.463Z,3.90
2018-12-09T00:42:22.668Z,4.13
2018-12-09T00:45:26.941Z,4.63
2018-12-09T00:48:31.139Z,4.63
2018-12-09T00:51:35.424Z,4.17
2018-12-09T00:54:39.723Z,3.33
2018-12-09T00:57:43.907Z,3.93
2018-12-09T01:00:48.354Z,4.27
2018-12-09T01:03:52.869Z,4.00
2018-12-09T01:06:57.294Z,3.77
2018-12-09T01:10:01.552Z,4.03
2018-12-09T01:13:06.158Z,2.97
2018-12-09T01:16:10.414Z,3.40
2018-12-09T01:19:14.838Z,2.83
2018-12-09T01:22:19.215Z,3.70
2018-12-09T01:25:23.531Z,3.43
2018-12-09T01:28:27.731Z,3.20
2018-12-09T01:31:32.355Z,3.37
2018-12-09T01:34:36.652Z,2.40
2018-12-09T01:37:40.870Z,3.13
2018-12-09T01:40:50.558Z,2.97
2018-12-09T01:43:54.762Z,3.50
2018-12-09T01:46:59.119Z,3.50
2018-12-09T01:50:03.526Z,3.20
2018-12-09T01:53:24.672Z,2.77
2018-12-09T01:56:28.892Z,2.03
2018-12-09T01:59:33.279Z,2.37
2018-12-09T02:02:37.578Z,2.27
2018-12-09T02:05:41.782Z,1.97
2018-12-09T02:08:46.043Z,1.97
2018-12-09T02:11:50.416Z,1.73
2018-12-09T02:14:55.145Z,2.50
2018-12-09T02:17:59.355Z,2.63
2018-12-09T02:21:03.743Z,2.23
2018-12-09T02:24:08.005Z,2.40
2018-12-09T02:27:12.876Z,3.43
2018-12-09T02:30:17.288Z,2.37
2018-12-09T02:33:21.698Z,2.53
2018-12-09T02:36:26.346Z,3.07
2018-12-09T02:39:30.573Z,2.73
2018-12-09T02:42:34.864Z,3.07
2018-12-09T02:45:39.073Z,2.87
2018-12-09T02:48:43.424Z,3.10
2018-12-09T02:51:47.854Z,2.83
2018-12-09T02:54:52.190Z,2.47
2018-12-09T02:57:56.491Z,2.80
2018-12-09T03:01:00.843Z,1.90
2018-12-09T03:04:05.202Z,2.50
2018-12-09T03:07:09.403Z,2.40
2018-12-09T03:10:13.772Z,1.90
2018-12-09T03:13:17.996Z,2.03
2018-12-09T03:16:22.467Z,1.87
2018-12-09T03:19:26.668Z,2.30
2018-12-09T03:22:30.895Z,4.07
2018-12-09T03:25:35.118Z,2.33
2018-12-09T03:28:39.366Z,2.37
2018-12-09T03:31:43.644Z,3.20
2018-12-09T03:34:48.462Z,2.67
2018-12-09T03:37:52.730Z,2.80
2018-12-09T03:40:57.162Z,4.23
2018-12-09T03:44:01.429Z,2.13
2018-12-09T03:47:05.807Z,2.80
2018-12-09T03:50:10.175Z,2.97
2018-12-09T03:53:14.464Z,2.87
2018-12-09T03:56:18.715Z,2.67
2018-12-09T03:59:22.959Z,2.23
2018-12-09T04:02:27.279Z,2.70
2018-12-09T04:05:31.497Z,2.00
2018-12-09T04:08:35.820Z,1.53
2018-12-09T04:11:40.342Z,2.63
2018-12-09T04:14:44.662Z,1.70
2018-12-09T04:17:48.859Z,2.87
2018-12-09T04:20:53.243Z,2.40
2018-12-09T04:23:57.453Z,1.97
2018-12-09T04:27:01.671Z,2.00
2018-12-09T04:30:06.906Z,2.27
2018-12-09T04:33:11.273Z,2.93
2018-12-09T04:36:15.494Z,2.53
2018-12-09T04:39:19.814Z,3.17
2018-12-09T04:42:24.123Z,2.80
2018-12-09T04:45:28.360Z,3.30
2018-12-09T04:48:32.595Z,2.73
2018-12-09T04:51:56.050Z,3.07
2018-12-09T04:55:00.290Z,3.53
2018-12-09T04:58:04.487Z,2.90
2018-12-09T05:01:08.814Z,2.73
2018-12-09T05:04:13.164Z,2.70
2018-12-09T05:07:17.479Z,2.70
2018-12-09T05:10:21.695Z,2.53
2018-12-09T05:13:25.924Z,3.27
2018-12-09T05:16:30.168Z,3.07
2018-12-09T05:19:34.387Z,2.20
2018-12-09T05:22:38.623Z,2.33
2018-12-09T05:25:42.854Z,1.93
2018-12-09T05:28:47.058Z,3.10
2018-12-09T05:31:51.327Z,2.20
2018-12-09T05:34:55.606Z,2.27
2018-12-09T05:37:59.913Z,2.23
2018-12-09T05:41:04.472Z,1.53
2018-12-09T05:44:08.738Z,1.93
2018-12-09T05:47:12.974Z,2.20
2018-12-09T05:50:17.234Z,2.40
2018-12-09T05:53:21.434Z,2.20
2018-12-09T05:56:25.676Z,2.63
2018-12-09T05:59:30.279Z,3.30
2018-12-09T06:02:51.791Z,3.03
2018-12-09T06:05:56.272Z,2.00
2018-12-09T06:09:00.544Z,2.40
2018-12-09T06:12:04.962Z,2.00
2018-12-09T06:15:09.627Z,1.87
2018-12-09T06:18:13.923Z,2.07
2018-12-09T06:21:18.138Z,1.60
2018-12-09T06:24:22.452Z,2.00
2018-12-09T06:27:26.685Z,2.70
2018-12-09T06:30:31.091Z,3.83
2018-12-09T06:33:35.299Z,2.50
2018-12-09T06:36:39.551Z,1.30
2018-12-09T06:39:43.749Z,1.57
2018-12-09T06:42:48.060Z,2.37
2018-12-09T06:45:52.344Z,1.63
2018-12-09T06:48:56.544Z,1.73
2018-12-09T06:52:00.842Z,1.10
2018-12-09T06:55:06.248Z,1.30
2018-12-09T06:58:10.549Z,1.60
2018-12-09T07:01:14.828Z,1.63
2018-12-09T07:04:19.044Z,1.90
2018-12-09T07:07:23.264Z,2.50
2018-12-09T07:10:27.547Z,1.57
2018-12-09T07:13:31.771Z,1.30
2018-12-09T07:16:36.008Z,1.20
2018-12-09T07:19:40.220Z,2.47
2018-12-09T07:22:44.540Z,1.43
2018-12-09T07:25:48.907Z,2.40
2018-12-09T07:28:53.168Z,4.10
2018-12-09T07:31:57.535Z,14.30
2018-12-09T07:35:01.834Z,6.70
2018-12-09T07:38:06.123Z,2.97
2018-12-09T07:41:10.352Z,3.30
2018-12-09T07:44:14.599Z,2.77
2018-12-09T07:47:19.335Z,1.40
2018-12-09T07:50:23.730Z,2.30
2018-12-09T07:53:28.018Z,2.87
2018-12-09T08:00:10.564Z,2.40
2018-12-09T08:03:14.799Z,1.93
2018-12-09T08:06:19.109Z,1.60
2018-12-09T08:09:23.343Z,1.80
2018-12-09T08:12:27.647Z,1.63
2018-12-09T08:15:31.972Z,1.60
2018-12-09T08:22:15.523Z,1.90
2018-12-09T08:25:20.604Z,1.23
2018-12-09T08:28:34.662Z,1.27
2018-12-09T08:31:39.003Z,1.47
2018-12-09T08:34:59.306Z,1.37
2018-12-09T08:38:03.913Z,1.40
2018-12-09T08:41:08.211Z,0.97
2018-12-09T08:44:12.507Z,0.80
2018-12-09T08:47:16.753Z,1.00
2018-12-09T08:50:21.047Z,1.07
2018-12-09T08:53:25.315Z,1.00
2018-12-09T08:56:29.676Z,1.10
2018-12-09T08:59:35.751Z,1.10
2018-12-09T09:02:39.987Z,0.70
2018-12-09T09:05:44.331Z,0.70
2018-12-09T09:08:48.623Z,0.60
2018-12-09T09:11:53.011Z,0.70
2018-12-09T09:15:05.488Z,0.73
2018-12-09T09:18:36.471Z,0.73
2018-12-09T09:21:40.700Z,1.07
2018-12-09T09:24:44.963Z,1.10
2018-12-09T09:27:49.208Z,0.73
2018-12-09T09:30:53.448Z,0.63
2018-12-09T09:33:57.670Z,0.80
2018-12-09T09:37:01.945Z,1.00
2018-12-09T09:40:08.615Z,0.80
2018-12-09T09:43:12.852Z,0.80
2018-12-09T09:46:17.183Z,0.97
2018-12-09T09:49:21.445Z,0.93
2018-12-09T09:52:25.825Z,1.20
2018-12-09T09:55:30.276Z,1.20
2018-12-09T09:58:34.523Z,0.97
2018-12-09T10:01:38.908Z,1.10
2018-12-09T10:04:43.138Z,1.30
2018-12-09T10:07:47.334Z,1.17
2018-12-09T10:10:51.663Z,1.30
2018-12-09T10:13:55.954Z,1.53
2018-12-09T10:17:00.173Z,1.27
2018-12-09T10:20:04.743Z,2.03
2018-12-09T10:23:09.072Z,1.10
2018-12-09T10:26:13.369Z,1.33
2018-12-09T10:29:17.615Z,0.60
2018-12-09T10:32:21.876Z,1.30
2018-12-09T10:35:26.100Z,0.60
2018-12-09T10:38:30.397Z,0.87
2018-12-09T10:41:34.627Z,1.30
2018-12-09T10:44:39.071Z,1.20
2018-12-09T10:47:43.291Z,1.67
2018-12-09T10:50:47.545Z,4.87
2018-12-09T10:53:51.778Z,0.87
2018-12-09T10:56:56.057Z,5.40
2018-12-09T11:00:00.323Z,2.43
2018-12-09T11:03:04.667Z,2.97
2018-12-09T11:06:08.899Z,0.70
2018-12-09T11:09:13.148Z,1.97
2018-12-09T11:12:17.535Z,5.17
2018-12-09T11:15:21.878Z,1.23
2018-12-09T11:18:26.281Z,1.17
2018-12-09T11:21:30.972Z,1.17
2018-12-09T11:24:35.308Z,1.70
2018-12-09T11:27:39.573Z,1.37
2018-12-09T11:30:43.775Z,1.17
2018-12-09T11:33:48.112Z,1.60
2018-12-09T11:36:52.457Z,1.33
2018-12-09T11:39:56.755Z,1.80
2018-12-09T11:43:01.158Z,1.70
2018-12-09T11:46:05.539Z,1.53
2018-12-09T11:49:09.776Z,2.10
2018-12-09T11:52:14.075Z,1.60
2018-12-09T11:55:18.482Z,1.73
2018-12-09T11:58:22.715Z,2.23
2018-12-09T12:01:27.010Z,1.00
2018-12-09T12:04:31.242Z,1.47
2018-12-09T12:07:35.435Z,2.20
2018-12-09T12:10:39.766Z,2.50
2018-12-09T12:13:44.045Z,2.33
2018-12-09T12:16:48.375Z,1.50
2018-12-09T12:19:52.612Z,1.73
2018-12-09T12:22:56.925Z,2.37
2018-12-09T12:26:01.632Z,2.00
2018-12-09T12:29:05.947Z,1.77
2018-12-09T12:32:10.249Z,1.50
2018-12-09T12:35:14.707Z,1.40
2018-12-09T12:38:19.007Z,1.40
2018-12-09T12:41:23.327Z,2.07
2018-12-09T12:44:27.643Z,1.67
2018-12-09T12:47:32.083Z,1.70
2018-12-09T12:50:36.535Z,1.60
2018-12-09T12:53:40.911Z,2.20
2018-12-09T12:56:45.163Z,1.80
2018-12-09T12:59:49.503Z,2.40
2018-12-09T13:02:53.838Z,1.90
2018-12-09T13:05:58.706Z,1.67
2018-12-09T13:09:03.007Z,2.33
2018-12-09T13:12:07.268Z,2.67
2018-12-09T13:15:11.694Z,3.43
2018-12-09T13:18:16.006Z,2.60
2018-12-09T13:21:20.240Z,2.60
2018-12-09T13:24:24.488Z,2.60
2018-12-09T13:27:28.795Z,2.60
2018-12-09T13:30:33.098Z,2.90
2018-12-09T13:33:37.344Z,3.13
2018-12-09T13:36:41.767Z,3.43
2018-12-09T13:39:46.067Z,2.77
2018-12-09T13:42:50.436Z,3.57
2018-12-09T13:45:54.737Z,3.57
2018-12-09T13:48:59.110Z,3.13
2018-12-09T13:52:03.394Z,3.00
2018-12-09T13:55:07.697Z,2.40
2018-12-09T13:58:12.003Z,3.17
2018-12-09T14:01:16.335Z,3.10
2018-12-09T14:04:20.548Z,3.20
2018-12-09T14:07:24.768Z,2.33
2018-12-09T14:10:29.121Z,2.80
2018-12-09T14:13:33.432Z,3.07
2018-12-09T14:16:37.808Z,3.83
2018-12-09T14:19:42.098Z,2.53
2018-12-09T14:22:46.482Z,2.73
2018-12-09T14:25:50.719Z,3.67
2018-12-09T14:28:57.458Z,3.23
2018-12-09T14:32:01.959Z,2.63
2018-12-09T14:35:08.856Z,3.17
2018-12-09T14:38:13.117Z,3.77
2018-12-09T14:41:17.386Z,2.83
2018-12-09T14:44:21.603Z,3.80
2018-12-09T14:47:25.838Z,4.47
2018-12-09T14:50:30.268Z,2.90
2018-12-09T14:53:34.538Z,3.90
2018-12-09T14:56:38.771Z,5.17
2018-12-09T14:59:43.028Z,4.37
2018-12-09T15:02:47.322Z,4.70
2018-12-09T15:05:51.615Z,4.10
2018-12-09T15:08:55.911Z,2.97
2018-12-09T15:12:00.557Z,2.90
2018-12-09T15:15:05.270Z,3.10
2018-12-09T15:18:09.552Z,3.67
2018-12-09T15:21:13.785Z,4.13
2018-12-09T15:24:18.177Z,3.57
2018-12-09T15:27:22.439Z,4.50
2018-12-09T15:30:26.731Z,4.23
2018-12-09T15:33:31.068Z,3.83
2018-12-09T15:36:35.334Z,4.37
2018-12-09T15:39:39.559Z,4.13
2018-12-09T15:42:43.890Z,3.60
2018-12-09T15:45:48.184Z,4.47
2018-12-09T15:48:52.583Z,5.13
2018-12-09T15:51:56.808Z,4.30
2018-12-09T15:55:01.135Z,2.87
2018-12-09T15:58:05.446Z,4.37
2018-12-09T16:01:09.848Z,4.23
2018-12-09T16:04:14.188Z,3.83
2018-12-09T16:07:18.523Z,3.83
2018-12-09T16:10:22.888Z,4.57
2018-12-09T16:13:27.114Z,4.20
2018-12-09T16:16:31.495Z,5.07
2018-12-09T16:19:35.835Z,4.50
2018-12-09T16:22:40.055Z,4.07
2018-12-09T16:25:44.306Z,4.83
2018-12-09T16:28:48.536Z,5.07
2018-12-09T16:31:52.860Z,4.63
2018-12-09T16:34:57.092Z,4.63
2018-12-09T16:38:01.349Z,5.93
2018-12-09T16:41:05.752Z,4.43
2018-12-09T16:44:10.135Z,4.77
2018-12-09T16:47:14.385Z,5.07
2018-12-09T16:50:18.707Z,3.87
2018-12-09T16:53:22.986Z,5.30
2018-12-09T16:56:27.232Z,4.80
2018-12-09T16:59:31.553Z,4.87
2018-12-09T17:02:35.767Z,4.83
2018-12-09T17:05:39.982Z,4.77
2018-12-09T17:08:44.218Z,4.20
2018-12-09T17:11:48.466Z,4.83
2018-12-09T17:14:52.708Z,4.70
2018-12-09T17:17:56.944Z,4.83
2018-12-09T17:21:01.153Z,4.57
2018-12-09T17:24:05.489Z,4.17
2018-12-09T17:27:09.799Z,3.90
2018-12-09T17:30:14.222Z,3.80
2018-12-09T17:33:18.429Z,4.30
2018-12-09T17:36:22.759Z,4.13
2018-12-09T17:39:27.083Z,4.37
2018-12-09T17:42:31.339Z,4.50
2018-12-09T17:45:35.631Z,4.00
2018-12-09T17:48:39.939Z,3.93
2018-12-09T17:51:44.159Z,3.80
2018-12-09T17:54:48.407Z,3.77
2018-12-09T17:57:52.634Z,2.97
2018-12-09T18:00:56.931Z,2.73
2018-12-09T18:04:01.211Z,2.67
2018-12-09T18:07:05.538Z,2.43
2018-12-09T18:10:10.006Z,2.63
2018-12-09T18:13:14.235Z,2.87
2018-12-09T18:16:18.516Z,2.73
2018-12-09T18:19:22.818Z,3.10
2018-12-09T18:22:27.053Z,2.57
2018-12-09T18:25:31.434Z,2.63
2018-12-09T18:28:35.722Z,2.57
2018-12-09T18:31:40.041Z,2.77
2018-12-09T18:34:44.343Z,2.80
2018-12-09T18:37:48.596Z,3.80
2018-12-09T18:40:53.012Z,2.60
2018-12-09T18:43:57.251Z,2.80
2018-12-09T18:47:01.512Z,3.33
2018-12-09T18:50:06.426Z,3.17
2018-12-09T18:53:10.646Z,3.00
2018-12-09T18:56:14.867Z,3.23
2018-12-09T18:59:19.128Z,3.40
2018-12-09T19:02:23.419Z,3.80
2018-12-09T19:05:27.723Z,3.63
2018-12-09T19:08:32.092Z,3.83
2018-12-09T19:11:36.482Z,4.07
2018-12-09T19:14:40.687Z,3.27
2018-12-09T19:17:44.967Z,2.77
2018-12-09T19:20:49.191Z,4.10
2018-12-09T19:23:53.539Z,4.63
2018-12-09T19:26:57.767Z,4.17
2018-12-09T19:30:02.141Z,3.27
2018-12-09T19:33:06.376Z,4.00
2018-12-09T19:36:10.764Z,4.37
2018-12-09T19:39:15.008Z,2.77
2018-12-09T19:42:19.237Z,2.50
2018-12-09T19:45:23.638Z,3.50
2018-12-09T19:48:27.937Z,3.47
2018-12-09T19:51:32.339Z,3.10
2018-12-09T19:54:36.598Z,2.63
2018-12-09T19:57:41.017Z,2.13
2018-12-09T20:00:45.303Z,2.90
2018-12-09T20:03:49.531Z,2.87
2018-12-09T20:06:53.919Z,3.17
2018-12-09T20:09:58.231Z,3.47
2018-12-09T20:13:02.584Z,2.80
2018-12-09T20:16:06.833Z,3.27
2018-12-09T20:19:11.218Z,3.60
2018-12-09T20:22:15.523Z,4.83
2018-12-09T20:25:19.850Z,8.30
2018-12-09T20:28:24.080Z,4.07
2018-12-09T20:31:28.340Z,3.87
2018-12-09T20:34:32.712Z,2.83
2018-12-09T20:37:36.963Z,3.93
2018-12-09T20:40:41.235Z,4.23
2018-12-09T20:43:45.531Z,3.83
2018-12-09T20:46:49.775Z,4.03
2018-12-09T20:49:54.055Z,2.60
2018-12-09T20:52:58.266Z,3.13
2018-12-09T20:56:02.607Z,2.80
2018-12-09T20:59:06.913Z,3.20
2018-12-09T21:02:11.246Z,3.90
2018-12-09T21:05:15.521Z,4.00
2018-12-09T21:08:19.774Z,3.23
2018-12-09T21:11:24.015Z,3.27
2018-12-09T21:14:28.280Z,3.70
2018-12-09T21:17:32.587Z,3.37
2018-12-09T21:20:36.903Z,1.87
2018-12-09T21:23:41.162Z,3.23
2018-12-09T21:26:45.430Z,3.97
2018-12-09T21:29:49.743Z,2.90
2018-12-09T21:32:54.155Z,3.40
2018-12-09T21:35:58.472Z,3.03
2018-12-09T21:39:03.013Z,3.03
2018-12-09T21:42:07.255Z,2.00
2018-12-09T21:45:11.626Z,2.43
2018-12-09T21:48:15.945Z,1.87
2018-12-09T21:51:20.273Z,2.27
2018-12-09T21:54:30.815Z,2.17
2018-12-09T21:57:35.055Z,2.03
2018-12-09T22:00:39.423Z,2.70
2018-12-09T22:03:43.650Z,2.20
2018-12-09T22:06:47.883Z,2.60
2018-12-09T22:09:52.132Z,2.47
2018-12-09T22:12:56.618Z,3.13
2018-12-09T22:16:00.904Z,2.27
2018-12-09T22:19:05.268Z,3.50
2018-12-09T22:22:09.720Z,2.27
2018-12-09T22:25:14.030Z,2.10
2018-12-09T22:28:18.257Z,2.10
2018-12-09T22:31:22.654Z,2.77
2018-12-09T22:34:26.914Z,2.30
2018-12-09T22:37:31.198Z,2.00
2018-12-09T22:40:35.451Z,2.83
2018-12-09T22:43:39.766Z,2.57
2018-12-09T22:46:44.066Z,2.70
2018-12-09T22:49:48.375Z,2.10
2018-12-09T22:52:52.803Z,2.33
2018-12-09T22:55:57.112Z,2.33
2018-12-09T22:59:01.504Z,1.97
2018-12-09T23:02:11.186Z,2.97
2018-12-09T23:05:15.519Z,1.97
2018-12-09T23:08:19.742Z,2.37
2018-12-09T23:11:24.080Z,2.97
2018-12-09T23:14:28.294Z,2.97
2018-12-09T23:17:32.610Z,3.13
2018-12-09T23:20:36.818Z,3.17
2018-12-09T23:23:41.048Z,2.37
2018-12-09T23:26:45.305Z,2.40
2018-12-09T23:29:49.560Z,2.20
2018-12-09T23:32:53.790Z,1.30
2018-12-09T23:35:58.045Z,1.63
2018-12-09T23:39:02.419Z,1.30
2018-12-09T23:42:06.706Z,1.60
2018-12-09T23:45:11.019Z,1.90
2018-12-09T23:48:15.467Z,1.53
2018-12-09T23:51:19.787Z,2.03
2018-12-09T23:54:24.015Z,2.23
2018-12-09T23:57:28.251Z,2.33
